createdAt,value
2023-02-24T00:00:11.468Z,98877.66
2023-02-24T00:02:37.809Z,98881.41
2023-02-24T00:05:04.366Z,98881.66
2023-02-24T00:07:30.845Z,98865.56
2023-02-24T00:09:57.259Z,98877.75
2023-02-24T00:12:23.556Z,98874.75
2023-02-24T00:14:50.275Z,98884.03
2023-02-24T00:17:16.723Z,98874.13
2023-02-24T00:19:43.575Z,98883.00
2023-02-24T00:22:10.402Z,98879.75
2023-02-24T00:24:36.919Z,98880.19
2023-02-24T00:27:06.008Z,98869.25
2023-02-24T00:29:32.337Z,98851.34
2023-02-24T00:31:59.097Z,98865.28
2023-02-24T00:34:30.760Z,98870.06
2023-02-24T00:36:58.738Z,98847.13
2023-02-24T00:39:26.309Z,98845.34
2023-02-24T00:41:52.787Z,98844.69
2023-02-24T00:44:19.435Z,98814.28
2023-02-24T00:46:47.031Z,98820.47
2023-02-24T00:49:18.769Z,98840.94
2023-02-24T00:51:47.788Z,98838.44
2023-02-24T00:54:15.594Z,98833.19
2023-02-24T00:56:43.755Z,98812.59
2023-02-24T00:59:11.550Z,98831.72
2023-02-24T01:01:38.016Z,98812.88
2023-02-24T01:04:06.615Z,98815.31
2023-02-24T01:06:33.458Z,98824.50
2023-02-24T01:09:00.602Z,98811.28
2023-02-24T01:11:33.175Z,98809.31
2023-02-24T01:14:00.273Z,98815.50
2023-02-24T01:16:26.700Z,98802.38
2023-02-24T01:18:53.660Z,98800.53
2023-02-24T01:21:20.976Z,98809.78
2023-02-24T01:23:51.603Z,98809.31
2023-02-24T01:26:18.567Z,98796.88
2023-02-24T01:28:46.324Z,98801.25
2023-02-24T01:31:13.185Z,98782.94
2023-02-24T01:33:39.716Z,98773.94
2023-02-24T01:36:14.453Z,98763.72
2023-02-24T01:38:41.262Z,98760.00
2023-02-24T01:41:08.492Z,98774.25
2023-02-24T01:43:56.598Z,98772.38
2023-02-24T01:46:22.922Z,98769.56
2023-02-24T01:48:51.987Z,98759.84
2023-02-24T01:51:19.153Z,98754.78
2023-02-24T01:53:45.721Z,98756.84
2023-02-24T01:56:12.580Z,98765.63
2023-02-24T01:58:39.920Z,98751.78
2023-02-24T02:01:08.157Z,98747.88
2023-02-24T02:03:38.129Z,98762.66
2023-02-24T02:06:13.387Z,98760.94
2023-02-24T02:08:42.069Z,98750.09
2023-02-24T02:11:12.209Z,98750.66
2023-02-24T02:13:42.882Z,98741.03
2023-02-24T02:16:31.039Z,98746.84
2023-02-24T02:19:27.144Z,98729.53
2023-02-24T02:22:22.911Z,98748.50
2023-02-24T02:25:00.588Z,98741.41
2023-02-24T02:27:58.478Z,98730.47
2023-02-24T02:30:45.091Z,98728.75
2023-02-24T02:33:37.091Z,98722.50
2023-02-24T02:36:15.162Z,98729.28
2023-02-24T02:38:55.854Z,98723.91
2023-02-24T02:41:34.707Z,98714.75
2023-02-24T02:44:11.141Z,98713.53
2023-02-24T02:47:01.433Z,98701.28
2023-02-24T02:49:34.294Z,98705.31
2023-02-24T02:52:07.216Z,98701.28
2023-02-24T02:54:43.817Z,98685.47
2023-02-24T02:57:15.192Z,98685.59
2023-02-24T02:59:48.811Z,98690.53
2023-02-24T03:02:19.670Z,98694.41
2023-02-24T03:04:52.258Z,98693.91
2023-02-24T03:07:20.990Z,98691.38
2023-02-24T03:09:53.815Z,98681.25
2023-02-24T03:12:22.920Z,98662.78
2023-02-24T03:14:58.050Z,98678.59
2023-02-24T03:17:28.965Z,98688.19
2023-02-24T03:20:03.489Z,98676.06
2023-02-24T03:22:36.796Z,98671.84
2023-02-24T03:25:03.816Z,98662.69
2023-02-24T03:27:46.965Z,98658.38
2023-02-24T03:30:21.842Z,98657.06
2023-02-24T03:32:52.856Z,98666.41
2023-02-24T03:35:36.369Z,98655.59
2023-02-24T03:38:04.065Z,98652.41
2023-02-24T03:40:30.739Z,98638.09
2023-02-24T03:43:02.785Z,98640.25
2023-02-24T03:45:29.441Z,98646.59
2023-02-24T03:47:56.271Z,98614.47
2023-02-24T03:50:23.121Z,98642.03
2023-02-24T03:53:19.524Z,98632.88
2023-02-24T03:56:09.781Z,98650.16
2023-02-24T03:58:51.433Z,98641.75
2023-02-24T04:01:26.513Z,98635.03
2023-02-24T04:04:01.643Z,98648.06
2023-02-24T04:06:59.773Z,98636.00
2023-02-24T04:09:33.705Z,98628.47
2023-02-24T04:12:14.712Z,98637.03
2023-02-24T04:15:06.076Z,98630.97
2023-02-24T04:17:40.744Z,98626.38
2023-02-24T04:20:10.809Z,98628.75
2023-02-24T04:22:38.689Z,98624.75
2023-02-24T04:25:05.560Z,98624.09
2023-02-24T04:27:32.755Z,98619.13
2023-02-24T04:30:01.992Z,98617.94
2023-02-24T04:32:30.258Z,98606.06
2023-02-24T04:35:08.780Z,98614.72
2023-02-24T04:37:36.472Z,98609.88
2023-02-24T04:40:04.027Z,98604.91
2023-02-24T04:42:30.708Z,98606.00
2023-02-24T04:44:57.137Z,98600.81
2023-02-24T04:47:23.520Z,98594.38
2023-02-24T04:49:49.955Z,98595.59
2023-02-24T04:52:16.298Z,98594.19
2023-02-24T04:54:42.672Z,98599.06
2023-02-24T04:57:08.976Z,98584.38
2023-02-24T04:59:35.632Z,98587.53
2023-02-24T05:02:02.126Z,98564.75
2023-02-24T05:04:28.761Z,98584.91
2023-02-24T05:06:55.933Z,98584.47
2023-02-24T05:09:22.598Z,98573.00
2023-02-24T05:11:51.541Z,98566.34
2023-02-24T05:14:20.159Z,98558.34
2023-02-24T05:16:48.709Z,98584.22
2023-02-24T05:19:18.848Z,98575.53
2023-02-24T05:21:45.240Z,98559.94
2023-02-24T05:24:11.554Z,98570.75
2023-02-24T05:26:39.971Z,98583.66
2023-02-24T05:29:07.469Z,98580.59
2023-02-24T05:31:35.027Z,98578.16
2023-02-24T05:34:06.923Z,98577.47
2023-02-24T05:36:36.852Z,98576.75
2023-02-24T05:39:03.641Z,98566.66
2023-02-24T05:41:30.380Z,98579.53
2023-02-24T05:43:56.805Z,98568.44
2023-02-24T05:46:29.166Z,98573.94
2023-02-24T05:49:12.420Z,98579.00
2023-02-24T05:51:39.245Z,98570.75
2023-02-24T05:54:08.620Z,98578.50
2023-02-24T05:56:37.956Z,98573.72
2023-02-24T05:59:06.237Z,98572.25
2023-02-24T06:01:34.857Z,98564.03
2023-02-24T06:04:04.281Z,98568.22
2023-02-24T06:06:30.777Z,98551.34
2023-02-24T06:08:58.164Z,98565.25
2023-02-24T06:11:24.940Z,98552.72
2023-02-24T06:13:51.502Z,98562.91
2023-02-24T06:16:19.067Z,98561.25
2023-02-24T06:18:48.716Z,98571.78
2023-02-24T06:21:15.192Z,98554.69
2023-02-24T06:23:41.599Z,98553.88
2023-02-24T06:26:08.958Z,98567.66
2023-02-24T06:28:35.303Z,98558.72
2023-02-24T06:31:04.732Z,98569.19
2023-02-24T06:33:31.923Z,98559.19
2023-02-24T06:36:00.913Z,98562.25
2023-02-24T06:38:34.235Z,98566.94
2023-02-24T06:41:02.521Z,98560.38
2023-02-24T06:43:33.458Z,98558.03
2023-02-24T06:46:02.350Z,98563.16
2023-02-24T06:48:28.827Z,98543.78
2023-02-24T06:50:55.208Z,98531.50
2023-02-24T06:53:21.560Z,98538.72
2023-02-24T06:55:49.082Z,98532.19
2023-02-24T06:58:17.995Z,98543.31
2023-02-24T07:00:46.070Z,98542.44
2023-02-24T07:03:17.163Z,98526.50
2023-02-24T07:05:46.646Z,98550.38
2023-02-24T07:08:13.101Z,98552.44
2023-02-24T07:10:40.286Z,98535.66
2023-02-24T07:13:06.666Z,98540.06
2023-02-24T07:15:37.182Z,98537.81
2023-02-24T07:18:04.900Z,98545.25
2023-02-24T07:20:31.270Z,98537.06
2023-02-24T07:22:57.956Z,98522.97
2023-02-24T07:25:24.637Z,98524.38
2023-02-24T07:27:50.948Z,98513.53
2023-02-24T07:30:17.720Z,98493.06
2023-02-24T07:32:44.118Z,98499.44
2023-02-24T07:35:10.466Z,98515.38
2023-02-24T07:37:37.190Z,98514.19
2023-02-24T07:40:04.442Z,98506.53
2023-02-24T07:42:30.754Z,98509.22
2023-02-24T07:44:57.511Z,98498.66
2023-02-24T07:47:24.361Z,98489.78
2023-02-24T07:49:50.883Z,98486.44
2023-02-24T07:52:17.196Z,98481.59
2023-02-24T07:54:43.989Z,98475.88
2023-02-24T07:57:10.794Z,98481.03
2023-02-24T07:59:37.543Z,98472.97
2023-02-24T08:02:03.946Z,98475.41
2023-02-24T08:04:30.928Z,98473.50
2023-02-24T08:06:58.576Z,98474.09
2023-02-24T08:09:27.761Z,98470.53
2023-02-24T08:11:55.390Z,98459.13
2023-02-24T08:14:28.394Z,98461.47
2023-02-24T08:16:56.702Z,98462.06
2023-02-24T08:19:23.025Z,98459.88
2023-02-24T08:21:53.689Z,98456.84
2023-02-24T08:24:25.230Z,98460.03
2023-02-24T08:26:54.995Z,98457.94
2023-02-24T08:29:21.557Z,98441.16
2023-02-24T08:31:48.306Z,98416.53
2023-02-24T08:34:14.766Z,98434.00
2023-02-24T08:36:41.152Z,98427.25
2023-02-24T08:39:07.717Z,98428.06
2023-02-24T08:41:34.161Z,98407.66
2023-02-24T08:44:00.556Z,98432.97
2023-02-24T08:46:27.329Z,98411.34
2023-02-24T08:48:56.759Z,98421.13
2023-02-24T08:51:32.306Z,98421.44
2023-02-24T08:54:05.112Z,98417.97
2023-02-24T08:56:32.984Z,98404.38
2023-02-24T08:59:02.053Z,98385.13
2023-02-24T09:01:31.399Z,98395.09
2023-02-24T09:03:59.834Z,98387.88
2023-02-24T09:06:46.097Z,98369.59
2023-02-24T09:09:14.998Z,98370.91
2023-02-24T09:11:41.735Z,98359.59
2023-02-24T09:14:15.323Z,98356.31
2023-02-24T09:16:54.429Z,98365.19
2023-02-24T09:19:21.135Z,98366.56
2023-02-24T09:21:47.691Z,98337.53
2023-02-24T09:24:16.894Z,98335.00
2023-02-24T09:26:43.543Z,98342.56
2023-02-24T09:29:11.981Z,98303.19
2023-02-24T09:31:38.459Z,98312.66
2023-02-24T09:34:05.045Z,98307.03
2023-02-24T09:36:32.748Z,98306.69
2023-02-24T09:39:00.496Z,98306.22
2023-02-24T09:41:42.057Z,98305.81
2023-02-24T09:44:17.057Z,98297.13
2023-02-24T09:46:57.553Z,98296.69
2023-02-24T09:49:33.470Z,98277.63
2023-02-24T09:51:59.928Z,98256.41
2023-02-24T09:54:33.429Z,98262.34
2023-02-24T09:57:08.089Z,98260.38
2023-02-24T09:59:48.931Z,98266.66
2023-02-24T10:02:46.904Z,98261.19
2023-02-24T10:05:40.675Z,98255.09
2023-02-24T10:08:19.973Z,98253.41
2023-02-24T10:10:46.496Z,98242.66
2023-02-24T10:13:22.616Z,98254.47
2023-02-24T10:15:49.302Z,98239.97
2023-02-24T10:18:28.791Z,98232.56
2023-02-24T10:21:14.112Z,98247.41
2023-02-24T10:23:59.764Z,98241.00
2023-02-24T10:27:00.873Z,98222.25
2023-02-24T10:29:43.617Z,98226.19
2023-02-24T10:32:18.423Z,98231.03
2023-02-24T10:34:44.953Z,98210.91
2023-02-24T10:37:27.641Z,98212.66
2023-02-24T10:40:01.640Z,98207.41
2023-02-24T10:42:33.015Z,98216.81
2023-02-24T10:45:25.653Z,98212.66
2023-02-24T10:47:57.772Z,98213.03
2023-02-24T10:50:53.804Z,98198.97
2023-02-24T10:53:27.845Z,98210.91
2023-02-24T10:55:59.799Z,98211.09
2023-02-24T10:58:26.518Z,98202.31
2023-02-24T11:00:53.782Z,98202.16
2023-02-24T11:03:32.628Z,98186.78
2023-02-24T11:05:59.596Z,98181.06
2023-02-24T11:08:26.212Z,98172.53
2023-02-24T11:10:53.369Z,98174.00
2023-02-24T11:13:20.782Z,98135.06
2023-02-24T11:15:54.367Z,98155.50
2023-02-24T11:18:23.665Z,98151.34
2023-02-24T11:20:58.708Z,98137.41
2023-02-24T11:23:31.632Z,98127.72
2023-02-24T11:26:01.608Z,98141.09
2023-02-24T11:28:46.062Z,98137.38
2023-02-24T11:31:22.666Z,98124.75
2023-02-24T11:34:02.821Z,98123.28
2023-02-24T11:37:03.578Z,98116.50
2023-02-24T11:39:45.647Z,98109.00
2023-02-24T11:42:16.772Z,98108.53
2023-02-24T11:44:52.486Z,98100.47
2023-02-24T11:47:26.086Z,98082.50
2023-02-24T11:50:16.586Z,98092.53
2023-02-24T11:52:47.118Z,98085.38
2023-02-24T11:55:40.110Z,98084.19
2023-02-24T11:58:35.568Z,98063.38
2023-02-24T12:01:11.058Z,98064.59
2023-02-24T12:03:59.677Z,98059.47
2023-02-24T12:06:32.961Z,98058.16
2023-02-24T12:09:07.707Z,98049.38
2023-02-24T12:14:57.333Z,98032.75
2023-02-24T12:17:49.498Z,98027.19
2023-02-24T12:20:23.569Z,98045.31
2023-02-24T12:22:55.911Z,98028.34
2023-02-24T12:25:28.811Z,98007.84
2023-02-24T12:28:13.620Z,98024.75
2023-02-24T12:30:59.609Z,98037.13
2023-02-24T12:33:51.006Z,98036.13
2023-02-24T12:36:26.892Z,98026.19
2023-02-24T12:39:29.237Z,98015.09
2023-02-24T12:42:24.459Z,98024.41
2023-02-24T12:45:17.124Z,98014.50
2023-02-24T12:48:21.659Z,98018.47
2023-02-24T12:51:07.059Z,98020.38
2023-02-24T12:53:57.666Z,98021.09
2023-02-24T12:56:49.588Z,98026.28
2023-02-24T12:59:21.643Z,98023.34
2023-02-24T13:02:23.058Z,98005.78
2023-02-24T13:05:12.754Z,98010.28
2023-02-24T13:07:39.279Z,98012.56
2023-02-24T13:10:14.674Z,98013.19
2023-02-24T13:12:45.691Z,98017.56
2023-02-24T13:15:27.026Z,98005.69
2023-02-24T13:17:57.967Z,98012.78
2023-02-24T13:20:30.458Z,98013.88
2023-02-24T13:23:04.526Z,98011.38
2023-02-24T13:25:35.707Z,98019.78
2023-02-24T13:28:04.973Z,98015.38
2023-02-24T13:30:36.409Z,98017.75
2023-02-24T13:33:20.144Z,98016.22
2023-02-24T13:35:48.981Z,98013.97
2023-02-24T13:38:34.124Z,98012.50
2023-02-24T13:41:28.344Z,98021.44
2023-02-24T13:43:56.511Z,98021.31
2023-02-24T13:46:23.052Z,98013.06
2023-02-24T13:48:59.769Z,98010.88
2023-02-24T13:51:47.901Z,98017.56
2023-02-24T13:54:52.449Z,98018.72
2023-02-24T13:57:18.697Z,98007.63
2023-02-24T14:00:07.098Z,98012.31
2023-02-24T14:02:39.035Z,98009.59
2023-02-24T14:05:11.554Z,97999.34
2023-02-24T14:07:39.597Z,98001.75
2023-02-24T14:10:17.059Z,97979.91
2023-02-24T14:12:43.753Z,98000.53
2023-02-24T14:15:15.729Z,97994.97
2023-02-24T14:17:42.188Z,97968.38
2023-02-24T14:20:21.853Z,97989.88
2023-02-24T14:22:51.625Z,97983.00
2023-02-24T14:25:18.156Z,97981.00
2023-02-24T14:27:47.037Z,97974.06
2023-02-24T14:30:22.310Z,97978.88
2023-02-24T14:32:48.882Z,97966.56
2023-02-24T14:35:20.599Z,97959.72
2023-02-24T14:37:47.001Z,97958.91
2023-02-24T14:40:15.312Z,97963.81
2023-02-24T14:42:50.559Z,97948.28
2023-02-24T14:45:21.959Z,97960.16
2023-02-24T14:47:48.537Z,97946.63
2023-02-24T14:50:18.238Z,97948.53
2023-02-24T14:52:56.001Z,97950.84
2023-02-24T14:55:23.868Z,97936.66
2023-02-24T14:58:11.109Z,97935.06
2023-02-24T15:00:46.239Z,97926.00
2023-02-24T15:03:18.599Z,97934.69
2023-02-24T15:05:48.732Z,97933.13
2023-02-24T15:08:42.340Z,97926.91
2023-02-24T15:11:14.798Z,97932.50
2023-02-24T15:13:54.180Z,97923.53
2023-02-24T15:16:29.795Z,97919.50
2023-02-24T15:19:01.008Z,97921.28
2023-02-24T15:21:40.864Z,97915.66
2023-02-24T15:24:25.692Z,97908.09
2023-02-24T15:27:14.170Z,97912.38
2023-02-24T15:29:42.702Z,97904.94
2023-02-24T15:32:21.325Z,97901.94
2023-02-24T15:34:48.062Z,97899.00
2023-02-24T15:37:27.284Z,97887.81
2023-02-24T15:40:03.679Z,97879.44
2023-02-24T15:42:35.638Z,97886.25
2023-02-24T15:45:06.900Z,97877.53
2023-02-24T15:47:44.872Z,97882.53
2023-02-24T15:50:13.065Z,97871.25
2023-02-24T15:52:40.967Z,97881.75
2023-02-24T15:55:10.247Z,97867.84
2023-02-24T15:57:36.924Z,97859.28
2023-02-24T16:00:05.288Z,97873.56
2023-02-24T16:02:31.898Z,97860.03
2023-02-24T16:04:58.298Z,97853.84
2023-02-24T16:07:30.500Z,97861.09
2023-02-24T16:09:57.712Z,97857.97
2023-02-24T16:12:27.305Z,97858.25
2023-02-24T16:14:53.736Z,97850.16
2023-02-24T16:17:32.866Z,97851.50
2023-02-24T16:20:00.151Z,97841.41
2023-02-24T16:22:28.079Z,97849.13
2023-02-24T16:24:54.452Z,97838.47
2023-02-24T16:27:23.520Z,97849.28
2023-02-24T16:29:50.088Z,97848.72
2023-02-24T16:32:16.820Z,97843.97
2023-02-24T16:34:43.521Z,97855.28
2023-02-24T16:37:19.455Z,97844.31
2023-02-24T16:39:46.187Z,97848.03
2023-02-24T16:42:13.466Z,97850.06
2023-02-24T16:44:39.884Z,97858.75
2023-02-24T16:47:07.807Z,97855.06
2023-02-24T16:49:34.396Z,97853.53
2023-02-24T16:52:00.800Z,97860.97
2023-02-24T16:54:27.130Z,97860.13
2023-02-24T16:56:53.613Z,97865.81
2023-02-24T16:59:20.056Z,97849.66
2023-02-24T17:01:46.958Z,97855.13
2023-02-24T17:04:13.447Z,97847.72
2023-02-24T17:06:40.758Z,97865.00
2023-02-24T17:09:07.305Z,97854.56
2023-02-24T17:11:33.967Z,97845.47
2023-02-24T17:14:00.283Z,97846.00
2023-02-24T17:16:27.024Z,97851.22
2023-02-24T17:18:53.514Z,97851.69
2023-02-24T17:21:20.271Z,97840.63
2023-02-24T17:23:46.764Z,97844.16
2023-02-24T17:26:14.972Z,97841.53
2023-02-24T17:28:41.799Z,97845.28
2023-02-24T17:31:08.389Z,97837.94
2023-02-24T17:33:35.199Z,97836.34
2023-02-24T17:36:01.659Z,97829.78
2023-02-24T17:38:28.063Z,97831.06
2023-02-24T17:40:54.395Z,97845.47
2023-02-24T17:43:21.024Z,97836.25
2023-02-24T17:45:47.458Z,97827.16
2023-02-24T17:48:15.986Z,97829.56
2023-02-24T17:50:43.374Z,97820.16
2023-02-24T17:53:09.722Z,97813.63
2023-02-24T17:55:36.527Z,97800.59
2023-02-24T17:58:03.293Z,97801.25
2023-02-24T18:00:29.710Z,97806.41
2023-02-24T18:02:56.226Z,97800.81
2023-02-24T18:05:22.945Z,97797.66
2023-02-24T18:07:49.370Z,97784.22
2023-02-24T18:10:17.165Z,97766.50
2023-02-24T18:12:43.564Z,97773.53
2023-02-24T18:15:10.720Z,97777.53
2023-02-24T18:17:38.172Z,97778.41
2023-02-24T18:20:09.460Z,97779.16
2023-02-24T18:22:35.858Z,97760.56
2023-02-24T18:25:02.297Z,97753.97
2023-02-24T18:27:28.761Z,97759.63
2023-02-24T18:29:55.250Z,97758.06
2023-02-24T18:32:21.998Z,97769.63
2023-02-24T18:34:48.635Z,97751.94
2023-02-24T18:37:15.190Z,97762.53
2023-02-24T18:39:41.605Z,97771.19
2023-02-24T18:42:08.183Z,97753.34
2023-02-24T18:44:34.732Z,97773.78
2023-02-24T18:47:01.198Z,97770.34
2023-02-24T18:49:27.616Z,97768.41
2023-02-24T18:51:54.079Z,97763.72
2023-02-24T18:54:20.599Z,97763.00
2023-02-24T18:56:47.155Z,97759.59
2023-02-24T18:59:13.845Z,97758.97
2023-02-24T19:01:40.326Z,97765.47
2023-02-24T19:04:08.623Z,97759.63
2023-02-24T19:06:36.284Z,97742.34
2023-02-24T19:09:10.793Z,97763.91
2023-02-24T19:11:39.067Z,97749.47
2023-02-24T19:14:05.920Z,97739.88
2023-02-24T19:16:32.932Z,97732.16
2023-02-24T19:19:00.120Z,97740.44
2023-02-24T19:21:28.904Z,97725.66
2023-02-24T19:23:55.447Z,97727.88
2023-02-24T19:26:24.920Z,97732.13
2023-02-24T19:28:51.838Z,97745.28
2023-02-24T19:31:22.570Z,97754.28
2023-02-24T19:33:56.685Z,97743.59
2023-02-24T19:36:24.613Z,97732.91
2023-02-24T19:38:51.984Z,97741.53
2023-02-24T19:41:18.749Z,97741.47
2023-02-24T19:43:45.239Z,97743.75
2023-02-24T19:46:13.963Z,97745.81
2023-02-24T19:48:41.117Z,97745.53
2023-02-24T19:51:13.189Z,97738.53
2023-02-24T19:53:39.885Z,97733.16
2023-02-24T19:56:07.437Z,97723.84
2023-02-24T19:58:34.408Z,97725.41
2023-02-24T20:01:08.281Z,97724.78
2023-02-24T20:03:36.260Z,97717.59
2023-02-24T20:06:03.109Z,97722.53
2023-02-24T20:08:29.436Z,97720.75
2023-02-24T20:11:04.705Z,97714.19
2023-02-24T20:13:31.503Z,97718.09
2023-02-24T20:16:11.242Z,97719.56
2023-02-24T20:18:38.345Z,97708.13
2023-02-24T20:21:05.320Z,97710.38
2023-02-24T20:23:32.316Z,97721.56
2023-02-24T20:25:59.470Z,97720.31
2023-02-24T20:28:26.466Z,97714.59
2023-02-24T20:30:54.806Z,97727.34
2023-02-24T20:33:22.124Z,97729.28
2023-02-24T20:35:48.508Z,97716.22
2023-02-24T20:38:15.034Z,97712.19
2023-02-24T20:40:42.148Z,97712.91
2023-02-24T20:43:09.766Z,97717.53
2023-02-24T20:45:38.320Z,97724.41
2023-02-24T20:48:04.992Z,97713.59
2023-02-24T20:50:31.370Z,97728.00
2023-02-24T20:52:57.752Z,97713.53
2023-02-24T20:55:24.048Z,97717.84
2023-02-24T20:57:50.614Z,97706.25
2023-02-24T21:00:17.708Z,97720.03
2023-02-24T21:02:44.117Z,97736.91
2023-02-24T21:05:22.204Z,97737.72
2023-02-24T21:07:49.900Z,97734.50
2023-02-24T21:10:17.611Z,97733.25
2023-02-24T21:12:44.060Z,97737.75
2023-02-24T21:15:10.849Z,97737.88
2023-02-24T21:17:37.300Z,97737.84
2023-02-24T21:20:04.464Z,97726.22
2023-02-24T21:22:30.779Z,97737.66
2023-02-24T21:24:57.999Z,97730.41
2023-02-24T21:27:26.456Z,97731.38
2023-02-24T21:29:53.276Z,97706.75
2023-02-24T21:32:19.862Z,97729.34
2023-02-24T21:34:46.611Z,97734.84
2023-02-24T21:37:13.142Z,97723.81
2023-02-24T21:39:39.459Z,97725.94
2023-02-24T21:42:06.132Z,97728.72
2023-02-24T21:44:32.920Z,97723.19
2023-02-24T21:46:59.289Z,97725.91
2023-02-24T21:49:25.818Z,97721.00
2023-02-24T21:51:52.296Z,97727.56
2023-02-24T21:54:18.820Z,97727.91
2023-02-24T21:56:45.655Z,97725.63
2023-02-24T21:59:11.974Z,97727.91
2023-02-24T22:01:41.193Z,97733.91
2023-02-24T22:04:12.174Z,97729.50
2023-02-24T22:06:41.171Z,97737.16
2023-02-24T22:09:09.407Z,97727.09
2023-02-24T22:11:39.464Z,97714.03
2023-02-24T22:14:10.601Z,97715.28
2023-02-24T22:16:37.879Z,97729.03
2023-02-24T22:19:04.483Z,97731.34
2023-02-24T22:21:31.987Z,97742.66
2023-02-24T22:24:01.449Z,97746.69
2023-02-24T22:26:29.552Z,97734.44
2023-02-24T22:28:56.403Z,97736.91
2023-02-24T22:31:26.420Z,97744.16
2023-02-24T22:33:53.374Z,97738.13
2023-02-24T22:36:22.710Z,97740.06
2023-02-24T22:38:49.526Z,97740.66
2023-02-24T22:41:18.774Z,97743.28
2023-02-24T22:43:45.227Z,97760.00
2023-02-24T22:46:20.145Z,97758.06
2023-02-24T22:48:47.218Z,97773.38
2023-02-24T22:51:14.431Z,97775.41
2023-02-24T22:53:43.843Z,97774.03
2023-02-24T22:56:11.921Z,97765.50
2023-02-24T22:58:38.451Z,97764.38
2023-02-24T23:01:16.676Z,97766.84
2023-02-24T23:03:43.718Z,97759.09
2023-02-24T23:06:12.917Z,97767.72
2023-02-24T23:08:40.900Z,97756.31
2023-02-24T23:11:10.770Z,97744.28
2023-02-24T23:13:37.064Z,97752.97
2023-02-24T23:16:05.065Z,97760.66
2023-02-24T23:18:33.150Z,97758.38
2023-02-24T23:21:01.311Z,97770.88
2023-02-24T23:23:28.025Z,97763.88
2023-02-24T23:25:54.355Z,97767.44
2023-02-24T23:28:20.785Z,97768.84
2023-02-24T23:30:47.419Z,97764.69
2023-02-24T23:33:14.250Z,97760.31
2023-02-24T23:35:40.729Z,97770.47
2023-02-24T23:38:07.614Z,97763.94
2023-02-24T23:40:48.085Z,97763.06
2023-02-24T23:43:15.980Z,97760.09
2023-02-24T23:45:43.026Z,97759.91
2023-02-24T23:48:12.905Z,97764.91
2023-02-24T23:50:40.953Z,97764.88
2023-02-24T23:53:07.484Z,97755.50
2023-02-24T23:55:34.056Z,97756.88
2023-02-24T23:58:01.369Z,97753.38
